Time;durP1;ratioP1;P1;durP2;ratioP2;P2;SDS_P1;SDS_P2;PMS_P1;PMS_P2;Temp;Humidity;BMP_temperature;BMP_pressure;BME280_temperature;BME280_humidity;BME280_pressure;Samples;Min_cycle;Max_cycle;Signal;HPM_P1;HPM_P2
2022/04/11 00:00:06;;;;;;;5.33;4.33;;;;;;;;;;4937179;29;20967;-85
2022/04/11 00:03:10;;;;;;;5.50;4.00;;;;;;;;;;4926909;29;20556;-85
2022/04/11 00:06:14;;;;;;;5.60;3.70;;;;;;;;;;4945321;29;20980;-85
2022/04/11 00:09:18;;;;;;;5.80;4.20;;;;;;;;;;4956703;28;20630;-85
2022/04/11 00:12:23;;;;;;;5.63;3.87;;;;;;;;;;4934753;29;21149;-85
2022/04/11 00:15:26;;;;;;;6.90;3.93;;;;;;;;;;4921594;29;20580;-85
2022/04/11 00:18:30;;;;;;;6.10;5.03;;;;;;;;;;4939260;29;20658;-85
2022/04/11 00:21:35;;;;;;;6.97;4.50;;;;;;;;;;4934815;29;20544;-85
2022/04/11 00:24:39;;;;;;;8.10;4.40;;;;;;;;;;4934319;29;20583;-85
2022/04/11 00:27:43;;;;;;;7.73;4.33;;;;;;;;;;4945333;29;20544;-85
2022/04/11 00:30:47;;;;;;;7.23;4.10;;;;;;;;;;4945044;29;20548;-85
2022/04/11 00:33:51;;;;;;;6.30;4.57;;;;;;;;;;4933503;29;20619;-85
2022/04/11 00:36:55;;;;;;;5.53;4.63;;;;;;;;;;4916786;29;21202;-85
2022/04/11 00:39:59;;;;;;;7.97;5.33;;;;;;;;;;4915407;29;20548;-84
2022/04/11 00:43:03;;;;;;;8.27;5.90;;;;;;;;;;4926120;29;20558;-85
2022/04/11 00:46:08;;;;;;;8.80;5.40;;;;;;;;;;4926110;29;20588;-85
2022/04/11 00:49:13;;;;;;;8.03;6.33;;;;;;;;;;4925936;29;20635;-85
2022/04/11 00:52:17;;;;;;;7.30;5.80;;;;;;;;;;4945057;29;20544;-85
2022/04/11 00:55:24;;;;;;;9.73;6.77;;;;;;;;;;4943895;29;20575;-85
2022/04/11 00:58:32;;;;;;;9.60;7.30;;;;;;;;;;4962228;23;20670;-85
2022/04/11 01:01:36;;;;;;;8.87;6.80;;;;;;;;;;4963932;28;20594;-85
2022/04/11 01:04:41;;;;;;;8.50;6.80;;;;;;;;;;4963704;28;21159;-85
2022/04/11 01:07:45;;;;;;;10.97;8.10;;;;;;;;;;4952999;28;20532;-85
2022/04/11 01:10:50;;;;;;;9.90;7.60;;;;;;;;;;4945228;29;20536;-85
2022/04/11 01:13:54;;;;;;;8.73;7.60;;;;;;;;;;4944044;29;20614;-85
2022/04/11 01:16:59;;;;;;;12.47;9.60;;;;;;;;;;4944485;29;20595;-85
2022/04/11 01:20:11;;;;;;;16.47;10.23;;;;;;;;;;4925895;29;20615;-85
2022/04/11 01:23:16;;;;;;;19.83;10.77;;;;;;;;;;4915691;29;20548;-85
2022/04/11 01:26:22;;;;;;;16.30;11.93;;;;;;;;;;4943870;29;20662;-85
2022/04/11 01:29:26;;;;;;;19.07;11.77;;;;;;;;;;4933522;29;20619;-85
2022/04/11 01:32:30;;;;;;;15.37;11.30;;;;;;;;;;4944577;29;21097;-85
2022/04/11 01:35:34;;;;;;;15.13;10.47;;;;;;;;;;4933141;29;20591;-85
2022/04/11 01:38:41;;;;;;;16.37;10.07;;;;;;;;;;4943642;28;20642;-85
2022/04/11 01:41:45;;;;;;;9.90;7.87;;;;;;;;;;4955503;28;20947;-85
2022/04/11 01:44:49;;;;;;;14.67;10.13;;;;;;;;;;4932843;29;21181;-85
2022/04/11 01:47:53;;;;;;;14.33;10.37;;;;;;;;;;4944398;28;20599;-85
2022/04/11 01:50:58;;;;;;;15.60;10.73;;;;;;;;;;4943696;29;20967;-85
2022/04/11 01:54:02;;;;;;;15.57;10.77;;;;;;;;;;4953085;29;20596;-85
2022/04/11 01:57:06;;;;;;;17.60;10.90;;;;;;;;;;4954956;29;20599;-85
2022/04/11 02:00:13;;;;;;;18.53;12.50;;;;;;;;;;4943921;29;20611;-84
2022/04/11 02:03:22;;;;;;;16.00;12.13;;;;;;;;;;4933648;29;21157;-85
2022/04/11 02:06:27;;;;;;;15.03;11.90;;;;;;;;;;4921193;29;21268;-85
2022/04/11 02:09:31;;;;;;;16.47;11.27;;;;;;;;;;4943534;29;20651;-85
2022/04/11 02:12:35;;;;;;;16.83;11.53;;;;;;;;;;4933056;29;20594;-85
2022/04/11 02:15:39;;;;;;;16.97;12.17;;;;;;;;;;4935735;29;20601;-85
2022/04/11 02:18:43;;;;;;;15.83;11.17;;;;;;;;;;4932715;28;20639;-85
2022/04/11 02:21:47;;;;;;;14.70;11.40;;;;;;;;;;4932283;29;20619;-85
2022/04/11 02:24:51;;;;;;;17.60;11.77;;;;;;;;;;4954571;29;20599;-85
2022/04/11 02:27:59;;;;;;;15.77;10.87;;;;;;;;;;4932390;28;20631;-85
2022/04/11 02:31:03;;;;;;;18.93;12.07;;;;;;;;;;4933057;29;21063;-85
2022/04/11 02:34:07;;;;;;;18.97;12.20;;;;;;;;;;4954528;29;20583;-85
2022/04/11 02:37:12;;;;;;;17.37;12.47;;;;;;;;;;4943331;29;20956;-85
2022/04/11 02:40:17;;;;;;;17.97;12.37;;;;;;;;;;4932817;29;20599;-85
2022/04/11 02:43:46;;;;;;;18.63;12.43;;;;;;;;;;4954763;29;20555;-85
2022/04/11 02:46:52;;;;;;;16.97;12.27;;;;;;;;;;4932649;29;20660;-83
2022/04/11 02:49:56;;;;;;;17.63;12.33;;;;;;;;;;4943313;29;20650;-82
2022/04/11 02:53:18;;;;;;;17.93;11.97;;;;;;;;;;4958053;28;20540;-82
2022/04/11 02:56:22;;;;;;;18.23;12.83;;;;;;;;;;4936463;29;20587;-83
2022/04/11 02:59:26;;;;;;;19.03;12.80;;;;;;;;;;4947239;29;20998;-83
2022/04/11 03:02:34;;;;;;;20.73;14.00;;;;;;;;;;4947810;29;20548;-83
2022/04/11 03:05:38;;;;;;;20.47;13.67;;;;;;;;;;4936537;29;20888;-83
2022/04/11 03:08:45;;;;;;;19.27;13.23;;;;;;;;;;4946907;28;20649;-83
2022/04/11 03:11:54;;;;;;;18.90;12.87;;;;;;;;;;4946808;29;21141;-83
2022/04/11 03:14:58;;;;;;;18.43;11.77;;;;;;;;;;4946950;29;20603;-83
2022/04/11 03:18:03;;;;;;;18.33;12.63;;;;;;;;;;4946213;28;20623;-83
2022/04/11 03:21:09;;;;;;;19.37;13.80;;;;;;;;;;4935899;29;20976;-83
2022/04/11 03:24:14;;;;;;;19.80;12.37;;;;;;;;;;4953701;29;21181;-83
2022/04/11 03:27:20;;;;;;;18.97;12.60;;;;;;;;;;4957632;29;20631;-83
2022/04/11 03:30:24;;;;;;;17.97;13.53;;;;;;;;;;4957590;29;20623;-83
2022/04/11 03:33:28;;;;;;;19.90;12.10;;;;;;;;;;4936270;29;20568;-83
2022/04/11 03:36:32;;;;;;;18.27;12.20;;;;;;;;;;4935822;29;20594;-83
2022/04/11 03:39:37;;;;;;;18.73;13.37;;;;;;;;;;4936123;29;20631;-83
2022/04/11 03:42:41;;;;;;;15.83;12.10;;;;;;;;;;4933592;29;20619;-82
2022/04/11 03:45:46;;;;;;;17.10;11.97;;;;;;;;;;4946544;29;20548;-82
2022/04/11 03:48:51;;;;;;;19.63;13.43;;;;;;;;;;4927684;29;20612;-83
2022/04/11 03:51:56;;;;;;;22.63;14.70;;;;;;;;;;4944224;29;20595;-83
2022/04/11 03:55:01;;;;;;;21.83;14.97;;;;;;;;;;4930133;29;20962;-83
2022/04/11 03:58:06;;;;;;;20.07;14.90;;;;;;;;;;4945865;28;21018;-83
2022/04/11 04:01:13;;;;;;;20.30;15.53;;;;;;;;;;4935799;29;21093;-83
2022/04/11 04:04:18;;;;;;;25.20;15.97;;;;;;;;;;4953550;28;20629;-82
2022/04/11 04:07:22;;;;;;;21.53;15.47;;;;;;;;;;4945482;29;21228;-83
2022/04/11 04:10:27;;;;;;;21.47;14.37;;;;;;;;;;4938088;29;20536;-83
2022/04/11 04:13:34;;;;;;;22.57;14.50;;;;;;;;;;4952545;29;20595;-82
2022/04/11 04:16:40;;;;;;;22.23;14.93;;;;;;;;;;4935689;29;20610;-82
2022/04/11 04:19:46;;;;;;;26.27;17.50;;;;;;;;;;4956605;28;20622;-83
2022/04/11 04:22:56;;;;;;;24.77;17.23;;;;;;;;;;4937573;29;20589;-83
2022/04/11 04:26:00;;;;;;;26.57;18.17;;;;;;;;;;4946178;29;20551;-83
2022/04/11 04:29:05;;;;;;;26.03;16.67;;;;;;;;;;4945407;29;20639;-83
2022/04/11 04:32:13;;;;;;;23.57;16.93;;;;;;;;;;4946388;29;20623;-83
2022/04/11 04:35:18;;;;;;;24.67;16.47;;;;;;;;;;4944027;29;20591;-83
2022/04/11 04:38:27;;;;;;;28.17;17.30;;;;;;;;;;4916381;29;20631;-84
2022/04/11 04:41:33;;;;;;;23.27;17.00;;;;;;;;;;4944846;29;21204;-84
2022/04/11 04:44:39;;;;;;;24.70;16.70;;;;;;;;;;4945023;29;20954;-83
2022/04/11 04:47:43;;;;;;;24.17;16.70;;;;;;;;;;4955968;29;20642;-83
2022/04/11 04:50:48;;;;;;;23.80;16.87;;;;;;;;;;4937846;29;20540;-83
2022/04/11 04:53:55;;;;;;;24.23;17.30;;;;;;;;;;4944942;29;20602;-83
2022/04/11 04:57:00;;;;;;;27.63;17.93;;;;;;;;;;4926304;29;20553;-83
2022/04/11 05:00:07;;;;;;;24.73;16.87;;;;;;;;;;4919716;29;20643;-83
2022/04/11 05:03:19;;;;;;;22.00;15.23;;;;;;;;;;4940248;29;20599;-83
2022/04/11 05:06:22;;;;;;;23.03;16.10;;;;;;;;;;4946514;29;20552;-83
2022/04/11 05:09:27;;;;;;;21.47;15.07;;;;;;;;;;4944223;29;20639;-83
2022/04/11 05:12:42;;;;;;;24.03;16.03;;;;;;;;;;4944801;29;20552;-84
2022/04/11 05:15:47;;;;;;;37.37;25.23;;;;;;;;;;4944092;29;20591;-85
2022/04/11 05:18:57;;;;;;;39.50;27.30;;;;;;;;;;4934376;29;20635;-85
2022/04/11 05:22:03;;;;;;;48.33;28.80;;;;;;;;;;4944700;29;20539;-84
2022/04/11 05:25:08;;;;;;;32.00;21.00;;;;;;;;;;4936191;29;20599;-84
2022/04/11 05:28:12;;;;;;;31.33;17.87;;;;;;;;;;4931675;28;21277;-83
2022/04/11 05:31:23;;;;;;;36.37;23.73;;;;;;;;;;4934299;29;20596;-84
2022/04/11 05:34:30;;;;;;;24.40;18.10;;;;;;;;;;4943999;29;20587;-85
2022/04/11 05:37:37;;;;;;;19.00;13.77;;;;;;;;;;4921491;29;20587;-85
2022/04/11 05:40:41;;;;;;;33.03;19.40;;;;;;;;;;4933330;29;20591;-85
2022/04/11 05:43:46;;;;;;;20.20;14.87;;;;;;;;;;4925440;29;20557;-84
2022/04/11 05:46:55;;;;;;;20.20;13.53;;;;;;;;;;4914877;29;20553;-84
2022/04/11 05:50:12;;;;;;;15.07;12.10;;;;;;;;;;4931239;29;20587;-86
2022/04/11 05:53:16;;;;;;;17.73;11.77;;;;;;;;;;4943634;29;20588;-86
2022/04/11 05:56:19;;;;;;;17.23;11.83;;;;;;;;;;4943718;29;20607;-84
2022/04/11 05:59:24;;;;;;;15.60;11.00;;;;;;;;;;4943314;29;20654;-84
2022/04/11 06:02:28;;;;;;;13.80;11.07;;;;;;;;;;4944087;29;20548;-85
2022/04/11 06:05:36;;;;;;;15.70;11.63;;;;;;;;;;4944705;29;20891;-85
2022/04/11 06:08:40;;;;;;;14.83;10.90;;;;;;;;;;4943674;28;20663;-85
2022/04/11 06:11:44;;;;;;;13.53;10.30;;;;;;;;;;4948844;29;21160;-84
2022/04/11 06:14:50;;;;;;;14.57;10.80;;;;;;;;;;4944008;29;20947;-84
2022/04/11 06:17:54;;;;;;;10.73;9.10;;;;;;;;;;4953284;28;20587;-84
2022/04/11 06:20:58;;;;;;;11.97;8.93;;;;;;;;;;4919342;29;20580;-84
2022/04/11 06:24:02;;;;;;;11.67;9.30;;;;;;;;;;4924566;29;20548;-84
2022/04/11 06:27:06;;;;;;;17.00;9.57;;;;;;;;;;4914507;29;20595;-85
2022/04/11 06:30:11;;;;;;;15.07;8.40;;;;;;;;;;4937473;29;20650;-85
2022/04/11 06:33:18;;;;;;;12.73;9.33;;;;;;;;;;4946586;29;21161;-84
2022/04/11 06:36:23;;;;;;;11.37;8.20;;;;;;;;;;4947817;29;21081;-84
2022/04/11 06:39:27;;;;;;;10.90;8.57;;;;;;;;;;4936030;29;20646;-84
2022/04/11 06:42:35;;;;;;;10.67;8.20;;;;;;;;;;4929132;29;20553;-84
2022/04/11 06:45:42;;;;;;;12.97;7.80;;;;;;;;;;4946413;29;20583;-84
2022/04/11 06:48:47;;;;;;;10.40;8.30;;;;;;;;;;4917247;29;20659;-84
2022/04/11 06:51:52;;;;;;;10.73;7.40;;;;;;;;;;4942114;29;20599;-84
2022/04/11 06:54:56;;;;;;;10.00;7.33;;;;;;;;;;4958622;29;20591;-84
2022/04/11 06:58:00;;;;;;;7.77;6.20;;;;;;;;;;4949271;28;21219;-85
2022/04/11 07:01:04;;;;;;;7.87;6.03;;;;;;;;;;4981513;23;20689;-84
2022/04/11 07:04:08;;;;;;;8.20;5.90;;;;;;;;;;4950879;29;20587;-83
2022/04/11 07:07:12;;;;;;;9.60;5.80;;;;;;;;;;4947563;29;20179;-83
2022/04/11 07:10:16;;;;;;;7.60;6.13;;;;;;;;;;4958009;28;20231;-83
2022/04/11 07:13:20;;;;;;;9.67;6.37;;;;;;;;;;4936024;29;20195;-83
2022/04/11 07:16:24;;;;;;;9.53;5.53;;;;;;;;;;4935496;29;20547;-83
2022/04/11 07:19:28;;;;;;;10.77;5.43;;;;;;;;;;4946823;29;20218;-83
2022/04/11 07:22:34;;;;;;;7.07;5.20;;;;;;;;;;4930297;29;20184;-83
2022/04/11 07:25:38;;;;;;;7.23;5.37;;;;;;;;;;4946663;28;20184;-83
2022/04/11 07:28:43;;;;;;;8.83;5.37;;;;;;;;;;4935689;29;20220;-83
2022/04/11 07:31:47;;;;;;;8.10;5.17;;;;;;;;;;4934976;28;20184;-83
2022/04/11 07:34:51;;;;;;;7.37;5.23;;;;;;;;;;4965849;28;20577;-84
2022/04/11 07:37:57;;;;;;;9.37;5.90;;;;;;;;;;4976417;28;20190;-83
2022/04/11 07:41:02;;;;;;;6.13;5.17;;;;;;;;;;4965334;28;20215;-84
2022/04/11 07:44:05;;;;;;;9.20;6.00;;;;;;;;;;4946856;28;20203;-84
2022/04/11 07:47:10;;;;;;;11.67;7.40;;;;;;;;;;4943703;28;20195;-85
2022/04/11 07:50:15;;;;;;;8.73;5.57;;;;;;;;;;4957663;29;20567;-84
2022/04/11 07:53:19;;;;;;;6.70;5.40;;;;;;;;;;4956486;28;20196;-84
2022/04/11 07:56:23;;;;;;;9.03;5.30;;;;;;;;;;4957842;29;20192;-84
2022/04/11 07:59:27;;;;;;;7.50;5.20;;;;;;;;;;4957606;29;20694;-84
2022/04/11 08:02:33;;;;;;;9.00;5.40;;;;;;;;;;4962028;28;20187;-84
2022/04/11 08:05:37;;;;;;;5.30;4.23;;;;;;;;;;4965157;28;20206;-84
2022/04/11 08:08:44;;;;;;;6.83;4.97;;;;;;;;;;4964784;28;20222;-84
2022/04/11 08:11:48;;;;;;;6.27;4.70;;;;;;;;;;4955640;28;20214;-84
2022/04/11 08:14:52;;;;;;;5.53;4.17;;;;;;;;;;4955965;29;20191;-84
2022/04/11 08:17:58;;;;;;;6.77;5.00;;;;;;;;;;4945604;29;20172;-84
2022/04/11 08:21:04;;;;;;;6.37;5.07;;;;;;;;;;4954629;29;20714;-84
2022/04/11 08:24:08;;;;;;;6.40;4.13;;;;;;;;;;4964108;28;20203;-84
2022/04/11 08:27:12;;;;;;;6.07;4.40;;;;;;;;;;4962811;28;20194;-84
2022/04/11 08:30:16;;;;;;;8.07;4.70;;;;;;;;;;4964712;28;20555;-84
2022/04/11 08:33:20;;;;;;;7.73;4.47;;;;;;;;;;4952614;28;20542;-84
2022/04/11 08:36:24;;;;;;;8.47;4.73;;;;;;;;;;4975773;28;20182;-84
2022/04/11 08:39:28;;;;;;;6.10;4.77;;;;;;;;;;4964654;28;20210;-84
2022/04/11 08:42:33;;;;;;;6.83;4.60;;;;;;;;;;4953205;28;20195;-84
2022/04/11 08:45:37;;;;;;;6.13;4.10;;;;;;;;;;4964301;28;20182;-84
2022/04/11 08:48:42;;;;;;;5.73;4.37;;;;;;;;;;4974931;28;20211;-84
2022/04/11 08:51:46;;;;;;;5.90;4.67;;;;;;;;;;4948952;29;20203;-84
2022/04/11 08:54:51;;;;;;;5.80;3.97;;;;;;;;;;4956502;29;20207;-84
2022/04/11 08:57:57;;;;;;;7.60;3.93;;;;;;;;;;4934083;29;20203;-84
2022/04/11 09:01:01;;;;;;;6.03;4.30;;;;;;;;;;4973152;28;20230;-84
2022/04/11 09:04:08;;;;;;;7.00;4.10;;;;;;;;;;4953288;28;20543;-84
2022/04/11 09:07:12;;;;;;;6.60;4.00;;;;;;;;;;4964278;28;20175;-84
2022/04/11 09:10:19;;;;;;;8.07;4.17;;;;;;;;;;4963722;28;20214;-84
2022/04/11 09:13:23;;;;;;;5.70;3.90;;;;;;;;;;4962853;28;20199;-84
2022/04/11 09:16:41;;;;;;;4.30;3.60;;;;;;;;;;4964445;28;20199;-84
2022/04/11 09:19:46;;;;;;;6.67;3.93;;;;;;;;;;4963956;28;20210;-84
2022/04/11 09:22:50;;;;;;;4.90;3.37;;;;;;;;;;4953479;28;20174;-84
2022/04/11 09:25:54;;;;;;;5.57;3.57;;;;;;;;;;4964361;28;20179;-84
2022/04/11 09:29:03;;;;;;;4.63;3.27;;;;;;;;;;4946019;28;20215;-84
2022/04/11 09:32:08;;;;;;;5.23;3.47;;;;;;;;;;4955371;29;20195;-84
2022/04/11 09:35:19;;;;;;;4.07;3.33;;;;;;;;;;4951374;28;20646;-84
2022/04/11 09:38:23;;;;;;;5.43;3.03;;;;;;;;;;4952566;28;20195;-84
2022/04/11 09:41:34;;;;;;;5.43;3.13;;;;;;;;;;4955528;28;20558;-84
2022/04/11 09:44:38;;;;;;;5.30;3.30;;;;;;;;;;4971374;28;20191;-84
2022/04/11 09:48:02;;;;;;;5.13;3.43;;;;;;;;;;4952600;28;20199;-84
2022/04/11 09:51:10;;;;;;;4.60;3.30;;;;;;;;;;4954368;28;20242;-81
2022/04/11 09:54:28;;;;;;;6.30;3.87;;;;;;;;;;4974552;28;20198;-81
2022/04/11 09:57:34;;;;;;;5.03;3.53;;;;;;;;;;4961312;28;20192;-81
2022/04/11 10:00:42;;;;;;;7.60;3.70;;;;;;;;;;4954557;29;20226;-81
2022/04/11 10:03:46;;;;;;;4.97;3.20;;;;;;;;;;4962014;28;20523;-81
2022/04/11 10:06:51;;;;;;;3.90;3.20;;;;;;;;;;4954701;28;20559;-81
2022/04/11 10:09:56;;;;;;;6.53;3.23;;;;;;;;;;4956269;28;20231;-81
2022/04/11 10:13:01;;;;;;;4.83;3.17;;;;;;;;;;4962918;28;20179;-81
2022/04/11 10:16:06;;;;;;;3.97;3.20;;;;;;;;;;4956762;28;20195;-81
2022/04/11 10:19:11;;;;;;;4.03;2.90;;;;;;;;;;4963157;28;20175;-81
2022/04/11 10:22:25;;;;;;;3.83;2.50;;;;;;;;;;4963092;28;20543;-81
2022/04/11 10:25:36;;;;;;;5.20;3.70;;;;;;;;;;4963127;28;20183;-81
2022/04/11 10:28:48;;;;;;;7.20;4.27;;;;;;;;;;4948491;28;20563;-81
2022/04/11 10:32:04;;;;;;;5.63;3.07;;;;;;;;;;4963040;28;20198;-81
2022/04/11 10:35:08;;;;;;;3.80;2.87;;;;;;;;;;4943628;29;20674;-80
2022/04/11 10:38:15;;;;;;;3.93;3.00;;;;;;;;;;4950836;28;20642;-80
2022/04/11 10:41:54;;;;;;;4.90;3.10;;;;;;;;;;4960920;28;20198;-80
2022/04/11 10:44:59;;;;;;;5.50;2.80;;;;;;;;;;4973492;28;20194;-81
2022/04/11 10:48:04;;;;;;;4.90;3.17;;;;;;;;;;4962725;28;20198;-81
2022/04/11 10:51:18;;;;;;;4.17;3.00;;;;;;;;;;4962929;28;20210;-81
2022/04/11 10:54:22;;;;;;;4.67;2.83;;;;;;;;;;4973917;28;20179;-81
2022/04/11 10:57:37;;;;;;;3.47;2.80;;;;;;;;;;4962200;28;20203;-80
2022/04/11 11:00:41;;;;;;;7.87;2.90;;;;;;;;;;4960167;28;20222;-81
2022/04/11 11:04:15;;;;;;;4.83;2.57;;;;;;;;;;4972382;28;20195;-81
2022/04/11 11:07:24;;;;;;;3.83;2.70;;;;;;;;;;4973432;28;20183;-81
2022/04/11 11:10:45;;;;;;;3.43;2.43;;;;;;;;;;4973604;28;20230;-81
2022/04/11 11:13:50;;;;;;;5.40;2.17;;;;;;;;;;4962900;28;20195;-81
2022/04/11 11:16:58;;;;;;;3.10;2.23;;;;;;;;;;4965587;28;20183;-81
2022/04/11 11:20:08;;;;;;;3.33;2.50;;;;;;;;;;4964765;28;20214;-81
2022/04/11 11:23:20;;;;;;;2.57;2.00;;;;;;;;;;4976794;28;20183;-81
2022/04/11 11:26:26;;;;;;;4.53;2.77;;;;;;;;;;4975507;28;20199;-81
2022/04/11 11:29:41;;;;;;;3.60;2.70;;;;;;;;;;4945045;29;20261;-81
2022/04/11 11:32:45;;;;;;;3.40;2.60;;;;;;;;;;4972460;28;20194;-81
2022/04/11 11:35:51;;;;;;;3.53;2.80;;;;;;;;;;4975875;28;20195;-81
2022/04/11 11:38:55;;;;;;;3.83;2.87;;;;;;;;;;4956233;29;20544;-81
2022/04/11 11:42:05;;;;;;;3.07;2.50;;;;;;;;;;4945697;29;20631;-81
2022/04/11 11:45:09;;;;;;;2.60;2.40;;;;;;;;;;4946031;29;20180;-82
2022/04/11 11:48:29;;;;;;;4.30;3.00;;;;;;;;;;4948651;28;20524;-82
2022/04/11 11:51:34;;;;;;;5.10;2.73;;;;;;;;;;4960119;29;20180;-81
2022/04/11 11:54:40;;;;;;;4.97;2.97;;;;;;;;;;4959829;29;20180;-81
2022/04/11 11:57:44;;;;;;;3.40;3.00;;;;;;;;;;4959197;29;20195;-81
2022/04/11 12:00:49;;;;;;;3.43;3.13;;;;;;;;;;4922002;28;1101129;-81
2022/04/11 12:07:18;;;;;;;3.73;2.77;;;;;;;;;;4946560;29;20184;-81
2022/04/11 12:10:22;;;;;;;3.33;2.80;;;;;;;;;;4956839;29;20579;-81
2022/04/11 12:13:32;;;;;;;4.97;3.00;;;;;;;;;;4957332;28;20187;-81
2022/04/11 12:16:38;;;;;;;4.40;3.40;;;;;;;;;;4968198;28;20195;-82
2022/04/11 12:19:43;;;;;;;4.87;3.10;;;;;;;;;;4981247;28;20215;-81
2022/04/11 12:23:10;;;;;;;7.23;3.20;;;;;;;;;;4947758;29;20183;-81
2022/04/11 12:26:33;;;;;;;6.63;3.10;;;;;;;;;;4935172;29;20643;-82
2022/04/11 12:29:41;;;;;;;3.10;2.80;;;;;;;;;;4957115;28;20227;-81
2022/04/11 12:32:46;;;;;;;5.47;3.30;;;;;;;;;;4947119;29;20635;-81
2022/04/11 12:36:14;;;;;;;4.23;2.97;;;;;;;;;;4960842;28;20195;-81
2022/04/11 12:39:18;;;;;;;3.13;2.83;;;;;;;;;;4957390;29;20211;-81
2022/04/11 12:42:26;;;;;;;4.43;2.10;;;;;;;;;;4946022;29;20207;-81
2022/04/11 12:45:30;;;;;;;2.90;2.00;;;;;;;;;;4957426;29;20196;-81
2022/04/11 12:48:54;;;;;;;2.97;2.70;;;;;;;;;;4974765;28;20194;-83
2022/04/11 12:51:59;;;;;;;6.97;2.90;;;;;;;;;;4964703;28;20638;-83
2022/04/11 12:55:04;;;;;;;4.70;3.03;;;;;;;;;;4964768;28;20551;-87
2022/04/11 12:58:11;;;;;;;3.43;2.80;;;;;;;;;;4964165;28;20666;-86
2022/04/11 13:01:15;;;;;;;4.03;2.70;;;;;;;;;;4979562;23;20578;-87
2022/04/11 13:04:20;;;;;;;5.27;3.23;;;;;;;;;;4967423;28;20171;-85
2022/04/11 13:07:26;;;;;;;2.73;2.10;;;;;;;;;;4966524;28;20196;-85
2022/04/11 13:10:30;;;;;;;3.20;2.53;;;;;;;;;;4955010;28;20235;-88
2022/04/11 13:13:34;;;;;;;3.60;2.60;;;;;;;;;;4956249;29;20203;-81
2022/04/11 13:20:01;;;;;;;5.07;2.67;;;;;;;;;;4955518;28;20219;-87
2022/04/11 13:23:06;;;;;;;3.60;2.27;;;;;;;;;;4957000;29;20508;-88
2022/04/11 13:26:10;;;;;;;3.63;2.13;;;;;;;;;;4955656;29;20188;-88
2022/04/11 13:29:15;;;;;;;3.53;2.43;;;;;;;;;;4944488;29;20184;-88
2022/04/11 13:32:22;;;;;;;4.93;2.77;;;;;;;;;;4944462;29;20180;-89
2022/04/11 13:35:26;;;;;;;4.40;2.93;;;;;;;;;;4955085;28;20187;-88
2022/04/11 13:38:30;;;;;;;7.43;2.90;;;;;;;;;;4944575;29;20188;-88
2022/04/11 13:41:35;;;;;;;5.10;2.77;;;;;;;;;;4944066;29;20214;-88
2022/04/11 13:44:39;;;;;;;3.63;2.37;;;;;;;;;;4966413;28;20188;-88
2022/04/11 13:47:43;;;;;;;3.17;2.40;;;;;;;;;;4955420;29;20627;-88
2022/04/11 13:50:48;;;;;;;5.47;2.50;;;;;;;;;;4944102;29;20239;-88
2022/04/11 13:53:53;;;;;;;3.73;2.53;;;;;;;;;;4944254;29;20180;-88
2022/04/11 13:56:57;;;;;;;3.20;2.87;;;;;;;;;;4944244;29;20199;-88
2022/04/11 14:00:03;;;;;;;3.20;2.50;;;;;;;;;;4943680;29;20218;-88
2022/04/11 14:03:12;;;;;;;5.30;2.50;;;;;;;;;;4966628;28;20615;-88
2022/04/11 14:06:17;;;;;;;4.17;2.40;;;;;;;;;;4955305;29;20195;-88
2022/04/11 14:09:21;;;;;;;3.97;2.60;;;;;;;;;;4955406;29;20195;-88
2022/04/11 14:12:25;;;;;;;3.73;2.63;;;;;;;;;;4955122;29;20187;-88
2022/04/11 14:15:30;;;;;;;2.73;2.30;;;;;;;;;;4944766;29;20188;-88
2022/04/11 14:18:34;;;;;;;2.90;2.33;;;;;;;;;;4955073;29;20175;-88
2022/04/11 14:21:38;;;;;;;4.57;2.93;;;;;;;;;;4954967;29;20223;-88
2022/04/11 14:24:42;;;;;;;3.23;2.40;;;;;;;;;;4944150;29;20191;-89
2022/04/11 14:27:46;;;;;;;2.73;2.47;;;;;;;;;;4954880;29;20188;-88
2022/04/11 14:30:50;;;;;;;4.30;2.70;;;;;;;;;;4954749;29;20227;-88
2022/04/11 14:33:54;;;;;;;3.93;2.27;;;;;;;;;;4943900;29;20179;-88
2022/04/11 14:36:58;;;;;;;4.43;2.20;;;;;;;;;;4943860;29;20199;-88
2022/04/11 14:40:02;;;;;;;3.87;2.50;;;;;;;;;;4943603;29;20218;-88
2022/04/11 14:43:07;;;;;;;2.73;2.10;;;;;;;;;;4943895;29;20179;-88
2022/04/11 14:46:11;;;;;;;3.27;2.20;;;;;;;;;;4954240;29;20196;-88
2022/04/11 14:49:15;;;;;;;2.83;2.23;;;;;;;;;;4956678;28;20199;-88
2022/04/11 14:52:19;;;;;;;3.20;2.10;;;;;;;;;;4947841;29;20184;-89
2022/04/11 14:55:23;;;;;;;4.23;2.33;;;;;;;;;;4947677;29;20187;-89
2022/04/11 14:58:29;;;;;;;2.83;2.17;;;;;;;;;;4948249;29;20195;-90
2022/04/11 15:01:32;;;;;;;3.47;2.43;;;;;;;;;;4946097;29;20227;-89
2022/04/11 15:04:37;;;;;;;4.43;2.33;;;;;;;;;;4957970;29;20179;-89
2022/04/11 15:07:41;;;;;;;3.30;2.47;;;;;;;;;;4961628;28;20194;-89
2022/04/11 15:10:45;;;;;;;3.63;2.07;;;;;;;;;;4966428;28;20231;-89
2022/04/11 15:13:49;;;;;;;3.63;2.10;;;;;;;;;;4977294;28;20186;-89
2022/04/11 15:16:53;;;;;;;2.40;1.90;;;;;;;;;;4977180;28;20183;-90
2022/04/11 15:19:57;;;;;;;3.17;2.20;;;;;;;;;;4977727;28;20214;-89
2022/04/11 15:23:01;;;;;;;2.97;2.20;;;;;;;;;;4977337;28;20626;-89
2022/04/11 15:26:05;;;;;;;3.40;1.90;;;;;;;;;;4977387;28;20179;-89
2022/04/11 15:29:09;;;;;;;2.80;2.27;;;;;;;;;;4966197;28;20221;-89
2022/04/11 15:32:14;;;;;;;6.03;2.20;;;;;;;;;;4937937;29;20192;-89
2022/04/11 15:35:18;;;;;;;6.30;2.40;;;;;;;;;;4946377;29;20195;-89
2022/04/11 15:38:22;;;;;;;3.90;2.10;;;;;;;;;;4946014;29;20195;-89
2022/04/11 15:41:29;;;;;;;4.03;2.43;;;;;;;;;;4946428;29;20211;-89
2022/04/11 15:44:34;;;;;;;5.50;2.50;;;;;;;;;;4945541;29;20188;-89
2022/04/11 15:47:38;;;;;;;4.37;2.43;;;;;;;;;;4946658;29;20179;-88
2022/04/11 15:50:43;;;;;;;3.77;2.50;;;;;;;;;;4945847;29;20227;-89
2022/04/11 15:53:47;;;;;;;3.67;2.40;;;;;;;;;;4938129;29;20188;-89
2022/04/11 15:56:51;;;;;;;3.63;2.40;;;;;;;;;;4938326;29;20184;-88
2022/04/11 15:59:55;;;;;;;6.53;3.50;;;;;;;;;;4926716;29;20572;-88
2022/04/11 16:03:00;;;;;;;7.10;3.30;;;;;;;;;;4949450;29;20180;-88
2022/04/11 16:06:04;;;;;;;4.93;3.57;;;;;;;;;;4938423;29;20181;-89
2022/04/11 16:09:08;;;;;;;4.17;3.10;;;;;;;;;;4948737;29;20643;-88
2022/04/11 16:12:12;;;;;;;6.30;3.03;;;;;;;;;;4943981;29;20207;-89
2022/04/11 16:15:16;;;;;;;4.60;3.20;;;;;;;;;;4957282;29;20183;-89
2022/04/11 16:18:20;;;;;;;5.00;3.07;;;;;;;;;;4956386;29;20199;-89
2022/04/11 16:21:25;;;;;;;4.07;3.23;;;;;;;;;;4934884;29;20211;-90
2022/04/11 16:24:29;;;;;;;3.60;3.00;;;;;;;;;;4916068;29;20180;-89
2022/04/11 16:27:33;;;;;;;4.83;3.13;;;;;;;;;;4950766;29;20206;-90
2022/04/11 16:30:37;;;;;;;4.37;3.20;;;;;;;;;;4949187;29;20227;-87
2022/04/11 16:33:41;;;;;;;4.77;3.13;;;;;;;;;;4939494;29;20187;-88
2022/04/11 16:36:46;;;;;;;4.57;3.40;;;;;;;;;;4958101;29;20183;-86
2022/04/11 16:39:50;;;;;;;6.57;3.40;;;;;;;;;;4957582;28;20222;-89
2022/04/11 16:42:54;;;;;;;5.83;3.33;;;;;;;;;;4958284;29;20179;-88
2022/04/11 16:45:58;;;;;;;3.40;2.97;;;;;;;;;;4956414;29;20195;-89
2022/04/11 16:49:02;;;;;;;3.93;3.00;;;;;;;;;;4956090;28;20187;-89
2022/04/11 16:52:07;;;;;;;6.83;3.53;;;;;;;;;;4941325;29;20220;-88
2022/04/11 16:55:11;;;;;;;6.87;3.30;;;;;;;;;;4926143;29;20208;-88
2022/04/11 16:58:15;;;;;;;9.37;3.80;;;;;;;;;;4927697;29;20200;-87
2022/04/11 17:01:19;;;;;;;4.60;3.43;;;;;;;;;;4954258;28;20698;-87
2022/04/11 17:04:23;;;;;;;5.13;3.67;;;;;;;;;;4934165;29;20179;-88
2022/04/11 17:07:27;;;;;;;5.33;3.10;;;;;;;;;;4956693;29;20184;-87
2022/04/11 17:10:33;;;;;;;6.87;3.50;;;;;;;;;;4940926;29;20224;-86
2022/04/11 17:13:37;;;;;;;6.40;3.80;;;;;;;;;;4943879;29;20207;-87
2022/04/11 17:20:04;;;;;;;4.63;3.23;;;;;;;;;;4965583;28;20220;-87
2022/04/11 17:23:08;;;;;;;4.50;3.30;;;;;;;;;;4944758;29;20192;-86
2022/04/11 17:26:13;;;;;;;4.67;2.90;;;;;;;;;;4955279;29;20195;-86
2022/04/11 17:29:17;;;;;;;4.00;3.23;;;;;;;;;;4929041;29;20203;-86
2022/04/11 17:32:21;;;;;;;5.80;3.20;;;;;;;;;;4943091;29;20216;-86
2022/04/11 17:35:25;;;;;;;3.90;2.90;;;;;;;;;;4925287;29;20188;-87
2022/04/11 17:38:29;;;;;;;5.40;3.20;;;;;;;;;;4944375;29;20195;-87
2022/04/11 17:41:35;;;;;;;5.17;3.00;;;;;;;;;;4954090;28;20211;-89
2022/04/11 17:44:39;;;;;;;5.23;3.30;;;;;;;;;;4936616;29;20188;-87
2022/04/11 17:47:43;;;;;;;5.10;3.10;;;;;;;;;;4940750;29;20199;-87
2022/04/11 17:50:47;;;;;;;5.07;3.13;;;;;;;;;;4934228;29;20234;-87
2022/04/11 17:53:52;;;;;;;5.87;3.33;;;;;;;;;;4938096;29;20196;-88
2022/04/11 17:56:56;;;;;;;5.07;3.23;;;;;;;;;;4935618;29;20208;-87
2022/04/11 18:00:00;;;;;;;5.10;2.83;;;;;;;;;;4933426;28;20238;-87
2022/04/11 18:03:05;;;;;;;6.50;3.30;;;;;;;;;;4946399;29;20190;-87
2022/04/11 18:06:09;;;;;;;4.57;3.23;;;;;;;;;;4947586;28;20195;-87
2022/04/11 18:09:13;;;;;;;5.67;3.10;;;;;;;;;;4939769;28;20191;-87
2022/04/11 18:12:17;;;;;;;4.80;2.80;;;;;;;;;;4954713;29;20215;-86
2022/04/11 18:15:21;;;;;;;4.73;2.50;;;;;;;;;;4947995;29;20195;-86
2022/04/11 18:18:26;;;;;;;3.53;2.67;;;;;;;;;;4935920;29;20168;-88
2022/04/11 18:21:30;;;;;;;3.30;2.47;;;;;;;;;;4926534;29;20216;-88
2022/04/11 18:24:35;;;;;;;4.63;2.43;;;;;;;;;;4956283;29;20203;-88
2022/04/11 18:27:41;;;;;;;3.03;2.40;;;;;;;;;;4944502;29;20179;-89
2022/04/11 18:34:07;;;;;;;3.53;2.23;;;;;;;;;;4955364;29;20188;-88
2022/04/11 18:37:11;;;;;;;4.17;2.70;;;;;;;;;;4938352;29;20199;-88